sensor_id;sensor_type;location;lat;lon;timestamp;P1;durP1;ratioP1;P2;durP2;ratioP2
72406;SDS011;60396;47.550;18.828;2023-05-16T00:00:34;2.57;;;0.40;;
72406;SDS011;60396;47.550;18.828;2023-05-16T00:03:03;4.25;;;0.43;;
72406;SDS011;60396;47.550;18.828;2023-05-16T00:05:31;4.53;;;0.50;;
72406;SDS011;60396;47.550;18.828;2023-05-16T00:07:59;2.95;;;0.45;;
72406;SDS011;60396;47.550;18.828;2023-05-16T00:10:27;2.05;;;0.50;;
72406;SDS011;60396;47.550;18.828;2023-05-16T00:12:54;1.93;;;0.70;;
72406;SDS011;60396;47.550;18.828;2023-05-16T00:15:22;1.50;;;0.40;;
72406;SDS011;60396;47.550;18.828;2023-05-16T00:17:51;2.87;;;0.50;;
72406;SDS011;60396;47.550;18.828;2023-05-16T00:20:24;2.03;;;0.37;;
72406;SDS011;60396;47.550;18.828;2023-05-16T00:22:53;1.27;;;0.32;;
72406;SDS011;60396;47.550;18.828;2023-05-16T00:25:21;2.27;;;0.50;;
72406;SDS011;60396;47.550;18.828;2023-05-16T00:27:49;2.08;;;0.40;;
72406;SDS011;60396;47.550;18.828;2023-05-16T00:30:17;2.42;;;0.60;;
72406;SDS011;60396;47.550;18.828;2023-05-16T00:32:44;3.15;;;0.30;;
72406;SDS011;60396;47.550;18.828;2023-05-16T00:35:15;4.53;;;0.50;;
72406;SDS011;60396;47.550;18.828;2023-05-16T00:37:43;1.30;;;0.30;;
72406;SDS011;60396;47.550;18.828;2023-05-16T00:40:10;1.70;;;0.40;;
72406;SDS011;60396;47.550;18.828;2023-05-16T00:42:38;1.40;;;0.30;;
72406;SDS011;60396;47.550;18.828;2023-05-16T00:45:06;2.53;;;0.50;;
72406;SDS011;60396;47.550;18.828;2023-05-16T00:47:35;3.30;;;0.50;;
72406;SDS011;60396;47.550;18.828;2023-05-16T00:50:03;4.33;;;0.53;;
72406;SDS011;60396;47.550;18.828;2023-05-16T00:52:32;2.15;;;0.40;;
72406;SDS011;60396;47.550;18.828;2023-05-16T00:55:01;1.95;;;0.40;;
72406;SDS011;60396;47.550;18.828;2023-05-16T00:57:30;1.67;;;0.50;;
72406;SDS011;60396;47.550;18.828;2023-05-16T00:59:57;2.65;;;0.60;;
72406;SDS011;60396;47.550;18.828;2023-05-16T01:02:25;2.27;;;0.50;;
72406;SDS011;60396;47.550;18.828;2023-05-16T01:04:55;2.67;;;0.70;;
72406;SDS011;60396;47.550;18.828;2023-05-16T01:07:23;2.40;;;0.40;;
72406;SDS011;60396;47.550;18.828;2023-05-16T01:09:50;2.60;;;0.50;;
72406;SDS011;60396;47.550;18.828;2023-05-16T01:18:55;3.65;;;0.40;;
72406;SDS011;60396;47.550;18.828;2023-05-16T01:21:32;2.25;;;0.40;;
72406;SDS011;60396;47.550;18.828;2023-05-16T01:27:01;2.12;;;0.60;;
72406;SDS011;60396;47.550;18.828;2023-05-16T01:29:32;1.53;;;0.40;;
72406;SDS011;60396;47.550;18.828;2023-05-16T01:32:00;2.50;;;0.50;;
72406;SDS011;60396;47.550;18.828;2023-05-16T01:34:28;2.20;;;0.50;;
72406;SDS011;60396;47.550;18.828;2023-05-16T01:36:59;2.85;;;0.50;;
72406;SDS011;60396;47.550;18.828;2023-05-16T01:42:16;3.13;;;0.60;;
72406;SDS011;60396;47.550;18.828;2023-05-16T01:45:22;2.22;;;0.60;;
72406;SDS011;60396;47.550;18.828;2023-05-16T01:47:46;7.18;;;0.50;;
72406;SDS011;60396;47.550;18.828;2023-05-16T01:50:29;2.20;;;0.52;;
72406;SDS011;60396;47.550;18.828;2023-05-16T01:52:59;2.53;;;0.60;;
72406;SDS011;60396;47.550;18.828;2023-05-16T01:55:43;3.33;;;0.53;;
72406;SDS011;60396;47.550;18.828;2023-05-16T01:58:13;1.83;;;0.40;;
72406;SDS011;60396;47.550;18.828;2023-05-16T02:00:42;3.17;;;0.60;;
72406;SDS011;60396;47.550;18.828;2023-05-16T02:03:10;2.33;;;0.65;;
72406;SDS011;60396;47.550;18.828;2023-05-16T02:05:38;4.07;;;0.70;;
72406;SDS011;60396;47.550;18.828;2023-05-16T02:08:06;3.67;;;0.60;;
72406;SDS011;60396;47.550;18.828;2023-05-16T02:10:35;1.65;;;0.50;;
72406;SDS011;60396;47.550;18.828;2023-05-16T02:13:03;2.45;;;0.50;;
72406;SDS011;60396;47.550;18.828;2023-05-16T02:15:30;3.20;;;0.60;;
72406;SDS011;60396;47.550;18.828;2023-05-16T02:17:58;2.47;;;0.60;;
72406;SDS011;60396;47.550;18.828;2023-05-16T02:20:26;2.47;;;0.70;;
72406;SDS011;60396;47.550;18.828;2023-05-16T02:22:53;4.80;;;0.70;;
72406;SDS011;60396;47.550;18.828;2023-05-16T02:25:22;3.00;;;0.57;;
72406;SDS011;60396;47.550;18.828;2023-05-16T02:27:50;4.60;;;0.60;;
72406;SDS011;60396;47.550;18.828;2023-05-16T02:30:17;3.90;;;0.70;;
72406;SDS011;60396;47.550;18.828;2023-05-16T02:32:45;2.13;;;0.60;;
72406;SDS011;60396;47.550;18.828;2023-05-16T02:35:16;7.53;;;0.93;;
72406;SDS011;60396;47.550;18.828;2023-05-16T02:37:43;1.77;;;0.43;;
72406;SDS011;60396;47.550;18.828;2023-05-16T02:40:11;2.30;;;0.57;;
72406;SDS011;60396;47.550;18.828;2023-05-16T02:42:39;3.72;;;0.80;;
72406;SDS011;60396;47.550;18.828;2023-05-16T02:45:08;3.57;;;0.60;;
72406;SDS011;60396;47.550;18.828;2023-05-16T02:47:36;2.67;;;0.60;;
72406;SDS011;60396;47.550;18.828;2023-05-16T02:50:05;2.47;;;0.60;;
72406;SDS011;60396;47.550;18.828;2023-05-16T02:52:33;2.40;;;0.70;;
72406;SDS011;60396;47.550;18.828;2023-05-16T02:55:01;4.82;;;0.70;;
72406;SDS011;60396;47.550;18.828;2023-05-16T02:57:31;2.73;;;0.57;;
72406;SDS011;60396;47.550;18.828;2023-05-16T02:59:59;1.85;;;0.50;;
72406;SDS011;60396;47.550;18.828;2023-05-16T03:02:27;3.67;;;0.90;;
72406;SDS011;60396;47.550;18.828;2023-05-16T03:04:55;2.65;;;0.68;;
72406;SDS011;60396;47.550;18.828;2023-05-16T03:07:22;6.00;;;0.80;;
72406;SDS011;60396;47.550;18.828;2023-05-16T03:09:51;3.60;;;0.60;;
72406;SDS011;60396;47.550;18.828;2023-05-16T03:12:18;2.45;;;0.70;;
72406;SDS011;60396;47.550;18.828;2023-05-16T03:14:46;2.08;;;0.60;;
72406;SDS011;60396;47.550;18.828;2023-05-16T03:17:14;4.03;;;0.88;;
72406;SDS011;60396;47.550;18.828;2023-05-16T03:19:41;5.43;;;0.70;;
72406;SDS011;60396;47.550;18.828;2023-05-16T03:22:09;4.77;;;0.70;;
72406;SDS011;60396;47.550;18.828;2023-05-16T03:24:36;2.53;;;0.60;;
72406;SDS011;60396;47.550;18.828;2023-05-16T03:27:04;2.53;;;0.60;;
72406;SDS011;60396;47.550;18.828;2023-05-16T03:29:32;2.87;;;0.70;;
72406;SDS011;60396;47.550;18.828;2023-05-16T03:32:00;2.70;;;0.60;;
72406;SDS011;60396;47.550;18.828;2023-05-16T03:34:28;2.20;;;0.60;;
72406;SDS011;60396;47.550;18.828;2023-05-16T03:36:56;2.70;;;0.60;;
72406;SDS011;60396;47.550;18.828;2023-05-16T03:39:24;2.85;;;0.50;;
72406;SDS011;60396;47.550;18.828;2023-05-16T03:41:53;2.83;;;0.60;;
72406;SDS011;60396;47.550;18.828;2023-05-16T03:44:23;3.03;;;0.62;;
72406;SDS011;60396;47.550;18.828;2023-05-16T03:46:51;2.40;;;0.60;;
72406;SDS011;60396;47.550;18.828;2023-05-16T03:49:22;3.20;;;0.60;;
72406;SDS011;60396;47.550;18.828;2023-05-16T03:51:53;2.80;;;0.70;;
72406;SDS011;60396;47.550;18.828;2023-05-16T03:54:20;2.35;;;0.60;;
72406;SDS011;60396;47.550;18.828;2023-05-16T03:56:48;5.28;;;0.60;;
72406;SDS011;60396;47.550;18.828;2023-05-16T03:59:16;5.50;;;0.90;;
72406;SDS011;60396;47.550;18.828;2023-05-16T04:01:43;1.77;;;0.50;;
72406;SDS011;60396;47.550;18.828;2023-05-16T04:04:11;2.03;;;0.50;;
72406;SDS011;60396;47.550;18.828;2023-05-16T04:06:40;2.28;;;0.50;;
72406;SDS011;60396;47.550;18.828;2023-05-16T04:09:07;2.78;;;0.50;;
72406;SDS011;60396;47.550;18.828;2023-05-16T04:11:36;3.10;;;0.67;;
72406;SDS011;60396;47.550;18.828;2023-05-16T04:14:04;1.50;;;0.40;;
72406;SDS011;60396;47.550;18.828;2023-05-16T04:16:32;3.83;;;0.50;;
72406;SDS011;60396;47.550;18.828;2023-05-16T04:19:00;2.85;;;0.50;;
72406;SDS011;60396;47.550;18.828;2023-05-16T04:21:27;1.80;;;0.40;;
72406;SDS011;60396;47.550;18.828;2023-05-16T04:23:55;1.90;;;0.60;;
72406;SDS011;60396;47.550;18.828;2023-05-16T04:26:24;1.95;;;0.40;;
72406;SDS011;60396;47.550;18.828;2023-05-16T04:28:51;2.58;;;0.40;;
72406;SDS011;60396;47.550;18.828;2023-05-16T04:31:19;1.30;;;0.30;;
72406;SDS011;60396;47.550;18.828;2023-05-16T04:33:48;2.55;;;0.43;;
72406;SDS011;60396;47.550;18.828;2023-05-16T04:36:15;1.60;;;0.40;;
72406;SDS011;60396;47.550;18.828;2023-05-16T04:38:43;2.33;;;0.45;;
72406;SDS011;60396;47.550;18.828;2023-05-16T04:41:13;2.97;;;0.40;;
72406;SDS011;60396;47.550;18.828;2023-05-16T04:43:40;3.17;;;0.40;;
72406;SDS011;60396;47.550;18.828;2023-05-16T04:46:08;1.70;;;0.40;;
72406;SDS011;60396;47.550;18.828;2023-05-16T04:48:36;2.33;;;0.40;;
72406;SDS011;60396;47.550;18.828;2023-05-16T04:51:04;2.58;;;0.50;;
72406;SDS011;60396;47.550;18.828;2023-05-16T04:53:31;2.72;;;0.73;;
72406;SDS011;60396;47.550;18.828;2023-05-16T04:55:59;2.62;;;0.80;;
72406;SDS011;60396;47.550;18.828;2023-05-16T04:58:27;2.03;;;0.65;;
72406;SDS011;60396;47.550;18.828;2023-05-16T05:00:55;2.40;;;0.70;;
72406;SDS011;60396;47.550;18.828;2023-05-16T05:03:23;2.70;;;0.40;;
72406;SDS011;60396;47.550;18.828;2023-05-16T05:05:50;1.98;;;0.50;;
72406;SDS011;60396;47.550;18.828;2023-05-16T05:08:18;1.77;;;0.40;;
72406;SDS011;60396;47.550;18.828;2023-05-16T05:10:46;2.92;;;0.50;;
72406;SDS011;60396;47.550;18.828;2023-05-16T05:13:13;7.47;;;1.27;;
72406;SDS011;60396;47.550;18.828;2023-05-16T05:15:41;3.28;;;0.65;;
72406;SDS011;60396;47.550;18.828;2023-05-16T05:18:09;3.17;;;0.60;;
72406;SDS011;60396;47.550;18.828;2023-05-16T05:20:37;2.75;;;0.60;;
72406;SDS011;60396;47.550;18.828;2023-05-16T05:23:04;2.45;;;0.70;;
72406;SDS011;60396;47.550;18.828;2023-05-16T05:25:32;2.33;;;0.60;;
72406;SDS011;60396;47.550;18.828;2023-05-16T05:28:04;2.80;;;0.50;;
72406;SDS011;60396;47.550;18.828;2023-05-16T05:30:32;2.67;;;0.47;;
72406;SDS011;60396;47.550;18.828;2023-05-16T05:32:59;4.35;;;0.60;;
72406;SDS011;60396;47.550;18.828;2023-05-16T05:35:27;3.97;;;0.62;;
72406;SDS011;60396;47.550;18.828;2023-05-16T05:37:56;2.50;;;0.63;;
72406;SDS011;60396;47.550;18.828;2023-05-16T05:40:23;3.37;;;0.70;;
72406;SDS011;60396;47.550;18.828;2023-05-16T05:42:50;2.75;;;0.60;;
72406;SDS011;60396;47.550;18.828;2023-05-16T05:45:18;5.30;;;1.00;;
72406;SDS011;60396;47.550;18.828;2023-05-16T05:47:46;4.95;;;0.80;;
72406;SDS011;60396;47.550;18.828;2023-05-16T05:50:13;7.57;;;1.87;;
72406;SDS011;60396;47.550;18.828;2023-05-16T05:52:42;5.75;;;0.90;;
72406;SDS011;60396;47.550;18.828;2023-05-16T05:55:10;2.55;;;0.62;;
72406;SDS011;60396;47.550;18.828;2023-05-16T05:57:38;4.80;;;0.95;;
72406;SDS011;60396;47.550;18.828;2023-05-16T06:00:06;1.90;;;0.52;;
72406;SDS011;60396;47.550;18.828;2023-05-16T06:02:33;3.23;;;0.60;;
72406;SDS011;60396;47.550;18.828;2023-05-16T06:05:02;2.42;;;0.60;;
72406;SDS011;60396;47.550;18.828;2023-05-16T06:07:30;2.53;;;0.70;;
72406;SDS011;60396;47.550;18.828;2023-05-16T06:09:57;2.62;;;0.50;;
72406;SDS011;60396;47.550;18.828;2023-05-16T06:12:26;4.62;;;0.77;;
72406;SDS011;60396;47.550;18.828;2023-05-16T06:14:53;3.37;;;0.73;;
72406;SDS011;60396;47.550;18.828;2023-05-16T06:17:21;5.93;;;0.80;;
72406;SDS011;60396;47.550;18.828;2023-05-16T06:19:49;4.80;;;0.80;;
72406;SDS011;60396;47.550;18.828;2023-05-16T06:22:17;3.10;;;0.70;;
72406;SDS011;60396;47.550;18.828;2023-05-16T06:24:45;3.55;;;0.70;;
72406;SDS011;60396;47.550;18.828;2023-05-16T06:27:13;3.83;;;0.90;;
72406;SDS011;60396;47.550;18.828;2023-05-16T06:29:40;4.87;;;0.60;;
72406;SDS011;60396;47.550;18.828;2023-05-16T06:32:07;3.03;;;0.70;;
72406;SDS011;60396;47.550;18.828;2023-05-16T06:34:39;3.65;;;0.82;;
72406;SDS011;60396;47.550;18.828;2023-05-16T06:37:07;3.95;;;0.77;;
72406;SDS011;60396;47.550;18.828;2023-05-16T06:39:34;3.43;;;1.03;;
72406;SDS011;60396;47.550;18.828;2023-05-16T06:42:02;3.95;;;0.95;;
72406;SDS011;60396;47.550;18.828;2023-05-16T06:44:31;5.87;;;1.20;;
72406;SDS011;60396;47.550;18.828;2023-05-16T06:46:58;8.15;;;1.10;;
72406;SDS011;60396;47.550;18.828;2023-05-16T06:49:26;3.97;;;1.10;;
72406;SDS011;60396;47.550;18.828;2023-05-16T06:51:54;5.50;;;1.17;;
72406;SDS011;60396;47.550;18.828;2023-05-16T06:54:21;3.30;;;0.95;;
72406;SDS011;60396;47.550;18.828;2023-05-16T06:56:49;4.40;;;0.85;;
72406;SDS011;60396;47.550;18.828;2023-05-16T06:59:17;2.90;;;0.80;;
72406;SDS011;60396;47.550;18.828;2023-05-16T07:01:44;2.67;;;0.73;;
72406;SDS011;60396;47.550;18.828;2023-05-16T07:04:13;5.40;;;1.20;;
72406;SDS011;60396;47.550;18.828;2023-05-16T07:06:41;3.55;;;1.08;;
72406;SDS011;60396;47.550;18.828;2023-05-16T07:09:09;4.55;;;0.90;;
72406;SDS011;60396;47.550;18.828;2023-05-16T07:11:37;5.07;;;1.62;;
72406;SDS011;60396;47.550;18.828;2023-05-16T07:14:05;6.28;;;2.65;;
72406;SDS011;60396;47.550;18.828;2023-05-16T07:16:33;8.10;;;1.70;;
72406;SDS011;60396;47.550;18.828;2023-05-16T07:19:00;4.55;;;1.45;;
72406;SDS011;60396;47.550;18.828;2023-05-16T07:21:28;5.22;;;1.83;;
72406;SDS011;60396;47.550;18.828;2023-05-16T07:23:56;7.80;;;2.50;;
72406;SDS011;60396;47.550;18.828;2023-05-16T07:26:24;6.50;;;2.28;;
72406;SDS011;60396;47.550;18.828;2023-05-16T07:28:52;6.80;;;2.60;;
72406;SDS011;60396;47.550;18.828;2023-05-16T07:31:20;7.72;;;2.97;;
72406;SDS011;60396;47.550;18.828;2023-05-16T07:33:48;8.38;;;3.10;;
72406;SDS011;60396;47.550;18.828;2023-05-16T07:36:16;7.43;;;3.00;;
72406;SDS011;60396;47.550;18.828;2023-05-16T07:38:44;9.32;;;3.12;;
72406;SDS011;60396;47.550;18.828;2023-05-16T07:41:11;7.07;;;2.90;;
72406;SDS011;60396;47.550;18.828;2023-05-16T07:43:39;8.80;;;3.03;;
72406;SDS011;60396;47.550;18.828;2023-05-16T07:46:07;8.23;;;4.20;;
72406;SDS011;60396;47.550;18.828;2023-05-16T07:48:35;8.60;;;4.10;;
72406;SDS011;60396;47.550;18.828;2023-05-16T07:51:03;12.55;;;5.18;;
72406;SDS011;60396;47.550;18.828;2023-05-16T07:53:31;7.70;;;2.90;;
72406;SDS011;60396;47.550;18.828;2023-05-16T07:55:58;9.82;;;4.35;;
72406;SDS011;60396;47.550;18.828;2023-05-16T07:58:26;8.45;;;4.00;;
72406;SDS011;60396;47.550;18.828;2023-05-16T08:00:54;10.52;;;4.57;;
72406;SDS011;60396;47.550;18.828;2023-05-16T08:03:22;10.25;;;5.07;;
72406;SDS011;60396;47.550;18.828;2023-05-16T08:05:50;11.57;;;5.17;;
72406;SDS011;60396;47.550;18.828;2023-05-16T08:08:18;13.13;;;5.47;;
72406;SDS011;60396;47.550;18.828;2023-05-16T08:10:46;14.57;;;6.12;;
72406;SDS011;60396;47.550;18.828;2023-05-16T08:13:14;14.38;;;6.60;;
72406;SDS011;60396;47.550;18.828;2023-05-16T08:15:42;15.18;;;7.47;;
72406;SDS011;60396;47.550;18.828;2023-05-16T08:18:13;13.93;;;6.63;;
72406;SDS011;60396;47.550;18.828;2023-05-16T08:20:42;13.40;;;6.82;;
72406;SDS011;60396;47.550;18.828;2023-05-16T08:23:10;12.82;;;6.22;;
72406;SDS011;60396;47.550;18.828;2023-05-16T08:25:38;14.18;;;5.72;;
72406;SDS011;60396;47.550;18.828;2023-05-16T08:28:05;10.35;;;4.97;;
72406;SDS011;60396;47.550;18.828;2023-05-16T08:30:33;10.30;;;4.10;;
72406;SDS011;60396;47.550;18.828;2023-05-16T08:33:00;9.43;;;4.30;;
72406;SDS011;60396;47.550;18.828;2023-05-16T08:35:31;10.30;;;3.95;;
72406;SDS011;60396;47.550;18.828;2023-05-16T08:38:01;9.02;;;3.83;;
72406;SDS011;60396;47.550;18.828;2023-05-16T08:40:31;8.02;;;3.90;;
72406;SDS011;60396;47.550;18.828;2023-05-16T08:42:59;9.37;;;4.17;;
72406;SDS011;60396;47.550;18.828;2023-05-16T08:45:28;8.02;;;3.60;;
72406;SDS011;60396;47.550;18.828;2023-05-16T08:47:57;8.70;;;3.62;;
72406;SDS011;60396;47.550;18.828;2023-05-16T08:50:31;9.05;;;4.10;;
72406;SDS011;60396;47.550;18.828;2023-05-16T08:53:00;7.43;;;3.35;;
72406;SDS011;60396;47.550;18.828;2023-05-16T08:55:34;7.77;;;3.33;;
72406;SDS011;60396;47.550;18.828;2023-05-16T08:58:02;7.37;;;3.20;;
72406;SDS011;60396;47.550;18.828;2023-05-16T09:00:30;6.43;;;2.60;;
72406;SDS011;60396;47.550;18.828;2023-05-16T09:02:58;6.57;;;2.90;;
72406;SDS011;60396;47.550;18.828;2023-05-16T09:05:28;7.12;;;2.90;;
72406;SDS011;60396;47.550;18.828;2023-05-16T09:07:56;7.33;;;3.10;;
72406;SDS011;60396;47.550;18.828;2023-05-16T09:10:24;6.75;;;2.58;;
72406;SDS011;60396;47.550;18.828;2023-05-16T09:12:52;6.87;;;3.20;;
72406;SDS011;60396;47.550;18.828;2023-05-16T09:15:19;6.95;;;2.62;;
72406;SDS011;60396;47.550;18.828;2023-05-16T09:17:50;7.57;;;3.30;;
72406;SDS011;60396;47.550;18.828;2023-05-16T09:20:18;7.77;;;3.30;;
72406;SDS011;60396;47.550;18.828;2023-05-16T09:22:51;8.90;;;3.90;;
72406;SDS011;60396;47.550;18.828;2023-05-16T09:25:20;8.65;;;3.80;;
72406;SDS011;60396;47.550;18.828;2023-05-16T09:27:58;9.50;;;4.30;;
72406;SDS011;60396;47.550;18.828;2023-05-16T09:30:28;9.95;;;5.07;;
72406;SDS011;60396;47.550;18.828;2023-05-16T09:32:57;10.23;;;5.57;;
72406;SDS011;60396;47.550;18.828;2023-05-16T09:35:29;12.20;;;6.35;;
72406;SDS011;60396;47.550;18.828;2023-05-16T09:38:15;11.15;;;6.35;;
72406;SDS011;60396;47.550;18.828;2023-05-16T09:40:44;11.38;;;6.20;;
72406;SDS011;60396;47.550;18.828;2023-05-16T09:43:14;10.45;;;5.90;;
72406;SDS011;60396;47.550;18.828;2023-05-16T09:45:44;10.17;;;6.13;;
72406;SDS011;60396;47.550;18.828;2023-05-16T09:48:14;11.15;;;6.80;;
72406;SDS011;60396;47.550;18.828;2023-05-16T09:50:47;10.30;;;6.28;;
72406;SDS011;60396;47.550;18.828;2023-05-16T09:53:25;10.48;;;5.82;;
72406;SDS011;60396;47.550;18.828;2023-05-16T09:56:00;10.38;;;5.68;;
72406;SDS011;60396;47.550;18.828;2023-05-16T09:58:35;10.17;;;6.00;;
72406;SDS011;60396;47.550;18.828;2023-05-16T10:01:03;12.60;;;6.10;;
72406;SDS011;60396;47.550;18.828;2023-05-16T10:03:33;10.73;;;6.00;;
72406;SDS011;60396;47.550;18.828;2023-05-16T10:06:02;10.90;;;6.60;;
72406;SDS011;60396;47.550;18.828;2023-05-16T10:08:31;10.80;;;6.57;;
72406;SDS011;60396;47.550;18.828;2023-05-16T10:11:03;12.00;;;7.17;;
72406;SDS011;60396;47.550;18.828;2023-05-16T10:13:32;10.15;;;6.47;;
72406;SDS011;60396;47.550;18.828;2023-05-16T10:16:05;11.00;;;6.90;;
72406;SDS011;60396;47.550;18.828;2023-05-16T10:18:35;10.40;;;6.30;;
72406;SDS011;60396;47.550;18.828;2023-05-16T10:21:08;10.55;;;6.37;;
72406;SDS011;60396;47.550;18.828;2023-05-16T10:23:41;10.17;;;6.03;;
72406;SDS011;60396;47.550;18.828;2023-05-16T10:26:10;10.27;;;5.93;;
72406;SDS011;60396;47.550;18.828;2023-05-16T10:28:40;10.15;;;5.65;;
72406;SDS011;60396;47.550;18.828;2023-05-16T10:31:09;9.20;;;5.60;;
72406;SDS011;60396;47.550;18.828;2023-05-16T10:33:37;10.50;;;4.70;;
72406;SDS011;60396;47.550;18.828;2023-05-16T10:36:06;8.73;;;4.53;;
72406;SDS011;60396;47.550;18.828;2023-05-16T10:38:35;8.60;;;4.40;;
72406;SDS011;60396;47.550;18.828;2023-05-16T10:41:02;8.55;;;4.30;;
72406;SDS011;60396;47.550;18.828;2023-05-16T10:43:31;8.52;;;4.43;;
72406;SDS011;60396;47.550;18.828;2023-05-16T10:46:04;8.65;;;4.62;;
72406;SDS011;60396;47.550;18.828;2023-05-16T10:48:34;8.93;;;4.67;;
72406;SDS011;60396;47.550;18.828;2023-05-16T10:51:04;9.35;;;5.30;;
72406;SDS011;60396;47.550;18.828;2023-05-16T10:54:04;9.20;;;5.57;;
72406;SDS011;60396;47.550;18.828;2023-05-16T10:56:33;10.05;;;5.72;;
72406;SDS011;60396;47.550;18.828;2023-05-16T10:59:02;10.05;;;5.68;;
72406;SDS011;60396;47.550;18.828;2023-05-16T11:04:00;11.23;;;6.15;;
72406;SDS011;60396;47.550;18.828;2023-05-16T11:06:32;10.65;;;6.22;;
72406;SDS011;60396;47.550;18.828;2023-05-16T11:11:44;9.88;;;6.18;;
72406;SDS011;60396;47.550;18.828;2023-05-16T11:16:55;14.20;;;6.65;;
72406;SDS011;60396;47.550;18.828;2023-05-16T11:19:48;10.80;;;6.43;;
72406;SDS011;60396;47.550;18.828;2023-05-16T11:25:03;12.48;;;7.05;;
72406;SDS011;60396;47.550;18.828;2023-05-16T11:27:42;12.13;;;7.30;;
72406;SDS011;60396;47.550;18.828;2023-05-16T11:32:41;10.95;;;6.97;;
72406;SDS011;60396;47.550;18.828;2023-05-16T11:35:10;11.30;;;7.22;;
72406;SDS011;60396;47.550;18.828;2023-05-16T11:37:41;13.95;;;7.85;;
72406;SDS011;60396;47.550;18.828;2023-05-16T11:40:10;11.67;;;7.43;;
72406;SDS011;60396;47.550;18.828;2023-05-16T11:42:43;13.62;;;7.53;;
72406;SDS011;60396;47.550;18.828;2023-05-16T11:47:51;12.57;;;6.90;;
72406;SDS011;60396;47.550;18.828;2023-05-16T11:50:20;12.13;;;7.00;;
72406;SDS011;60396;47.550;18.828;2023-05-16T11:52:50;10.80;;;6.77;;
72406;SDS011;60396;47.550;18.828;2023-05-16T11:55:22;11.65;;;6.87;;
72406;SDS011;60396;47.550;18.828;2023-05-16T11:58:09;12.50;;;7.10;;
72406;SDS011;60396;47.550;18.828;2023-05-16T12:00:46;13.88;;;6.55;;
72406;SDS011;60396;47.550;18.828;2023-05-16T12:03:14;11.30;;;6.68;;
72406;SDS011;60396;47.550;18.828;2023-05-16T12:05:50;10.23;;;6.70;;
72406;SDS011;60396;47.550;18.828;2023-05-16T12:08:21;10.02;;;6.75;;
72406;SDS011;60396;47.550;18.828;2023-05-16T12:10:50;10.23;;;6.07;;
72406;SDS011;60396;47.550;18.828;2023-05-16T12:13:19;10.50;;;6.55;;
72406;SDS011;60396;47.550;18.828;2023-05-16T12:15:47;11.02;;;6.65;;
72406;SDS011;60396;47.550;18.828;2023-05-16T12:18:16;11.37;;;6.53;;
72406;SDS011;60396;47.550;18.828;2023-05-16T12:20:43;10.32;;;6.32;;
72406;SDS011;60396;47.550;18.828;2023-05-16T12:23:12;12.07;;;6.50;;
72406;SDS011;60396;47.550;18.828;2023-05-16T12:25:46;10.75;;;6.65;;
72406;SDS011;60396;47.550;18.828;2023-05-16T12:28:15;11.60;;;6.45;;
72406;SDS011;60396;47.550;18.828;2023-05-16T12:30:43;11.97;;;6.87;;
72406;SDS011;60396;47.550;18.828;2023-05-16T12:33:14;10.98;;;7.20;;
72406;SDS011;60396;47.550;18.828;2023-05-16T12:35:44;12.75;;;6.97;;
72406;SDS011;60396;47.550;18.828;2023-05-16T12:38:13;10.40;;;7.00;;
72406;SDS011;60396;47.550;18.828;2023-05-16T12:40:42;12.00;;;7.65;;
72406;SDS011;60396;47.550;18.828;2023-05-16T12:45:55;11.95;;;7.78;;
72406;SDS011;60396;47.550;18.828;2023-05-16T12:48:31;12.32;;;7.28;;
72406;SDS011;60396;47.550;18.828;2023-05-16T12:53:46;12.10;;;7.62;;
72406;SDS011;60396;47.550;18.828;2023-05-16T12:56:37;13.00;;;7.70;;
72406;SDS011;60396;47.550;18.828;2023-05-16T12:59:06;12.02;;;7.30;;
72406;SDS011;60396;47.550;18.828;2023-05-16T13:01:34;12.00;;;7.90;;
72406;SDS011;60396;47.550;18.828;2023-05-16T13:04:05;15.55;;;8.07;;
72406;SDS011;60396;47.550;18.828;2023-05-16T13:06:33;13.95;;;9.05;;
72406;SDS011;60396;47.550;18.828;2023-05-16T13:09:21;15.07;;;8.40;;
72406;SDS011;60396;47.550;18.828;2023-05-16T13:11:50;13.43;;;8.30;;
72406;SDS011;60396;47.550;18.828;2023-05-16T13:14:18;13.15;;;8.25;;
72406;SDS011;60396;47.550;18.828;2023-05-16T13:16:46;13.73;;;7.50;;
72406;SDS011;60396;47.550;18.828;2023-05-16T13:19:14;13.00;;;7.22;;
72406;SDS011;60396;47.550;18.828;2023-05-16T13:21:41;13.43;;;7.57;;
72406;SDS011;60396;47.550;18.828;2023-05-16T13:24:09;11.50;;;7.47;;
72406;SDS011;60396;47.550;18.828;2023-05-16T13:26:37;9.50;;;6.37;;
72406;SDS011;60396;47.550;18.828;2023-05-16T13:29:04;13.10;;;6.37;;
72406;SDS011;60396;47.550;18.828;2023-05-16T13:31:32;10.50;;;6.60;;
72406;SDS011;60396;47.550;18.828;2023-05-16T13:34:00;10.70;;;7.03;;
72406;SDS011;60396;47.550;18.828;2023-05-16T13:36:28;12.60;;;5.87;;
72406;SDS011;60396;47.550;18.828;2023-05-16T13:39:16;10.45;;;6.12;;
72406;SDS011;60396;47.550;18.828;2023-05-16T13:41:44;11.63;;;6.50;;
72406;SDS011;60396;47.550;18.828;2023-05-16T13:44:14;10.95;;;6.50;;
72406;SDS011;60396;47.550;18.828;2023-05-16T13:46:43;9.40;;;6.07;;
72406;SDS011;60396;47.550;18.828;2023-05-16T13:49:11;9.93;;;6.00;;
72406;SDS011;60396;47.550;18.828;2023-05-16T13:51:38;11.85;;;6.90;;
72406;SDS011;60396;47.550;18.828;2023-05-16T13:54:06;11.90;;;6.40;;
72406;SDS011;60396;47.550;18.828;2023-05-16T13:56:34;11.65;;;6.68;;
72406;SDS011;60396;47.550;18.828;2023-05-16T13:59:02;13.73;;;6.53;;
72406;SDS011;60396;47.550;18.828;2023-05-16T14:01:34;11.25;;;6.65;;
72406;SDS011;60396;47.550;18.828;2023-05-16T14:04:03;12.65;;;6.10;;
72406;SDS011;60396;47.550;18.828;2023-05-16T14:06:30;11.40;;;6.07;;
72406;SDS011;60396;47.550;18.828;2023-05-16T14:08:59;14.80;;;6.20;;
72406;SDS011;60396;47.550;18.828;2023-05-16T14:11:27;11.10;;;5.60;;
72406;SDS011;60396;47.550;18.828;2023-05-16T14:13:56;10.15;;;5.53;;
72406;SDS011;60396;47.550;18.828;2023-05-16T14:16:24;11.10;;;5.32;;
72406;SDS011;60396;47.550;18.828;2023-05-16T14:18:52;10.57;;;5.15;;
72406;SDS011;60396;47.550;18.828;2023-05-16T14:21:20;12.95;;;4.90;;
72406;SDS011;60396;47.550;18.828;2023-05-16T14:23:48;14.37;;;5.37;;
72406;SDS011;60396;47.550;18.828;2023-05-16T14:26:16;13.00;;;4.53;;
72406;SDS011;60396;47.550;18.828;2023-05-16T14:28:48;11.95;;;4.93;;
72406;SDS011;60396;47.550;18.828;2023-05-16T14:31:16;9.82;;;4.80;;
72406;SDS011;60396;47.550;18.828;2023-05-16T14:33:44;12.37;;;4.55;;
72406;SDS011;60396;47.550;18.828;2023-05-16T14:36:12;13.33;;;5.60;;
72406;SDS011;60396;47.550;18.828;2023-05-16T14:38:40;10.80;;;4.93;;
72406;SDS011;60396;47.550;18.828;2023-05-16T14:41:08;8.63;;;4.95;;
72406;SDS011;60396;47.550;18.828;2023-05-16T14:43:36;11.05;;;5.15;;
72406;SDS011;60396;47.550;18.828;2023-05-16T14:46:05;9.15;;;4.35;;
72406;SDS011;60396;47.550;18.828;2023-05-16T14:48:32;12.57;;;4.90;;
72406;SDS011;60396;47.550;18.828;2023-05-16T14:51:00;10.23;;;4.72;;
72406;SDS011;60396;47.550;18.828;2023-05-16T14:53:28;13.02;;;4.65;;
72406;SDS011;60396;47.550;18.828;2023-05-16T14:55:55;9.48;;;4.30;;
72406;SDS011;60396;47.550;18.828;2023-05-16T14:58:23;9.27;;;4.40;;
72406;SDS011;60396;47.550;18.828;2023-05-16T15:00:51;9.13;;;4.73;;
72406;SDS011;60396;47.550;18.828;2023-05-16T15:03:19;10.95;;;5.00;;
72406;SDS011;60396;47.550;18.828;2023-05-16T15:05:50;11.93;;;3.80;;
72406;SDS011;60396;47.550;18.828;2023-05-16T15:08:19;10.23;;;3.80;;
72406;SDS011;60396;47.550;18.828;2023-05-16T15:10:47;9.05;;;3.92;;
72406;SDS011;60396;47.550;18.828;2023-05-16T15:13:14;9.30;;;3.57;;
72406;SDS011;60396;47.550;18.828;2023-05-16T15:15:45;13.20;;;4.15;;